Time;durP1;ratioP1;P1;durP2;ratioP2;P2;SDS_P1;SDS_P2;PMS_P1;PMS_P2;Temp;Humidity;BMP_temperature;BMP_pressure;BME280_temperature;BME280_humidity;BME280_pressure;Samples;Min_cycle;Max_cycle;Signal;HPM_P1;HPM_P2
2022/07/21 00:01:45;;;;;;;2.20;2.00;;;20.20;99.90;;;;;;5016751;28;20449;-70
2022/07/21 00:04:11;;;;;;;1.03;1.00;;;20.20;99.90;;;;;;5017029;28;20474;-69
2022/07/21 00:06:37;;;;;;;1.50;1.40;;;20.20;99.90;;;;;;5016866;28;20402;-70
2022/07/21 00:09:03;;;;;;;1.00;1.00;;;20.30;99.90;;;;;;5016432;28;20207;-70
2022/07/21 00:11:28;;;;;;;2.00;1.80;;;20.30;99.90;;;;;;5016801;28;20170;-70
2022/07/21 00:13:54;;;;;;;1.17;1.00;;;20.30;99.90;;;;;;5016634;28;20849;-70
2022/07/21 00:16:20;;;;;;;1.70;1.27;;;20.20;99.90;;;;;;5016679;28;20639;-70
2022/07/21 00:18:46;;;;;;;2.73;2.53;;;20.20;99.90;;;;;;5014972;28;20178;-70
2022/07/21 00:21:12;;;;;;;3.03;2.03;;;20.20;99.90;;;;;;5016269;28;20796;-70
2022/07/21 00:23:38;;;;;;;2.40;2.20;;;20.20;99.90;;;;;;5016453;28;20169;-71
2022/07/21 00:26:04;;;;;;;1.77;1.67;;;20.20;99.90;;;;;;5016554;28;20188;-69
2022/07/21 00:28:29;;;;;;;1.27;1.27;;;20.10;99.90;;;;;;5016247;28;20406;-71
2022/07/21 00:30:55;;;;;;;2.80;2.60;;;20.10;99.90;;;;;;5016086;28;20441;-70
2022/07/21 00:33:20;;;;;;;1.80;1.33;;;20.10;99.90;;;;;;5016387;28;20177;-70
2022/07/21 00:35:46;;;;;;;2.40;1.80;;;20.10;99.90;;;;;;5016272;28;20172;-70
2022/07/21 00:38:12;;;;;;;2.80;2.60;;;20.10;99.90;;;;;;5015952;28;20207;-70
2022/07/21 00:40:37;;;;;;;3.67;2.80;;;20.10;99.90;;;;;;5015848;28;20186;-70
2022/07/21 00:43:03;;;;;;;3.27;1.50;;;20.10;99.90;;;;;;5016232;28;20214;-70
2022/07/21 00:45:29;;;;;;;1.60;1.50;;;20.00;99.90;;;;;;5016074;28;20176;-70
2022/07/21 00:47:55;;;;;;;1.87;1.77;;;20.00;99.90;;;;;;5015808;28;20395;-70
2022/07/21 00:50:21;;;;;;;3.50;1.90;;;20.00;99.90;;;;;;5015840;28;20435;-70
2022/07/21 00:52:47;;;;;;;2.20;2.00;;;19.90;99.90;;;;;;5015744;28;20648;-70
2022/07/21 00:55:16;;;;;;;1.30;1.20;;;19.80;99.90;;;;;;5016024;28;20172;-70
2022/07/21 00:57:42;;;;;;;2.67;2.47;;;19.80;99.90;;;;;;5015866;28;20408;-70
2022/07/21 01:00:12;;;;;;;1.50;1.40;;;19.80;99.90;;;;;;5015747;28;20423;-70
2022/07/21 01:02:38;;;;;;;2.47;2.27;;;19.90;99.90;;;;;;5015430;28;20466;-70
2022/07/21 01:05:06;;;;;;;1.57;1.47;;;19.80;99.90;;;;;;5015756;28;20394;-70
2022/07/21 01:07:32;;;;;;;1.23;1.13;;;19.90;99.90;;;;;;5015609;28;20401;-70
2022/07/21 01:09:59;;;;;;;2.60;2.40;;;19.80;99.90;;;;;;5015408;28;20453;-70
2022/07/21 01:12:24;;;;;;;2.30;2.10;;;19.70;99.90;;;;;;5015529;28;20569;-70
2022/07/21 01:14:51;;;;;;;2.50;2.30;;;19.60;99.90;;;;;;5015581;28;20454;-70
2022/07/21 01:17:17;;;;;;;2.50;2.30;;;19.60;99.90;;;;;;5015168;28;20183;-69
2022/07/21 01:19:45;;;;;;;2.57;2.10;;;19.60;99.90;;;;;;5015332;28;20439;-69
2022/07/21 01:22:11;;;;;;;1.90;1.90;;;19.60;99.90;;;;;;5014439;28;20199;-70
2022/07/21 01:24:36;;;;;;;2.10;1.80;;;19.60;99.90;;;;;;5013455;28;20513;-70
2022/07/21 01:27:02;;;;;;;1.73;1.63;;;19.70;99.90;;;;;;5013179;28;20512;-70
2022/07/21 01:29:28;;;;;;;2.90;2.13;;;19.70;99.90;;;;;;5014303;28;20202;-70
2022/07/21 01:31:54;;;;;;;5.77;3.23;;;19.70;99.90;;;;;;5014975;28;20232;-70
2022/07/21 01:34:19;;;;;;;2.07;1.67;;;19.70;99.90;;;;;;5015313;28;20245;-69
2022/07/21 01:36:45;;;;;;;3.00;2.70;;;19.70;99.90;;;;;;5015080;28;20582;-70
2022/07/21 01:41:55;;;;;;;2.30;2.03;;;19.70;99.90;;;;;;5015324;28;20458;-71
2022/07/21 01:44:21;;;;;;;2.10;1.97;;;19.70;99.90;;;;;;5015200;28;20498;-70
2022/07/21 01:46:49;;;;;;;3.87;3.57;;;19.70;99.90;;;;;;5014986;28;20570;-70
2022/07/21 01:49:16;;;;;;;2.20;1.93;;;19.80;99.90;;;;;;5013638;28;20439;-70
2022/07/21 01:51:42;;;;;;;3.07;2.50;;;19.70;99.90;;;;;;5014483;28;20411;-70
2022/07/21 01:54:09;;;;;;;4.20;3.83;;;19.80;99.90;;;;;;5014909;28;20499;-70
2022/07/21 01:56:35;;;;;;;2.40;2.20;;;19.70;99.90;;;;;;5013166;28;20691;-70
2022/07/21 01:59:01;;;;;;;2.07;1.93;;;19.70;99.90;;;;;;5014641;28;20424;-70
2022/07/21 02:01:28;;;;;;;2.60;2.40;;;19.70;99.90;;;;;;5015065;28;20958;-70
2022/07/21 02:03:56;;;;;;;2.13;2.03;;;19.70;99.90;;;;;;5014803;28;20172;-70
2022/07/21 02:06:21;;;;;;;2.80;1.43;;;19.60;99.90;;;;;;5014869;28;20405;-70
2022/07/21 02:08:48;;;;;;;2.03;1.83;;;19.60;99.90;;;;;;5014119;28;20485;-70
2022/07/21 02:11:16;;;;;;;2.03;1.93;;;19.50;99.90;;;;;;5013021;28;20758;-70
2022/07/21 02:13:43;;;;;;;2.97;2.77;;;19.50;99.90;;;;;;5013293;28;20432;-70
2022/07/21 02:16:10;;;;;;;1.83;1.73;;;19.40;99.90;;;;;;5014702;28;20409;-70
2022/07/21 02:18:35;;;;;;;2.10;2.00;;;19.50;99.90;;;;;;5013567;28;20762;-70
2022/07/21 02:21:01;;;;;;;2.10;2.00;;;19.40;99.90;;;;;;5010167;28;20472;-70
2022/07/21 02:23:27;;;;;;;2.93;1.77;;;19.50;99.90;;;;;;5013814;28;20239;-70
2022/07/21 02:25:53;;;;;;;2.33;2.20;;;19.50;99.90;;;;;;5012896;28;20179;-70
2022/07/21 02:28:19;;;;;;;5.13;4.73;;;19.40;99.90;;;;;;5014174;28;20175;-70
2022/07/21 02:30:45;;;;;;;2.70;2.50;;;19.30;99.90;;;;;;5012981;28;20442;-69
2022/07/21 02:33:11;;;;;;;3.00;2.53;;;19.30;99.90;;;;;;5012984;28;20487;-69
2022/07/21 02:35:38;;;;;;;2.70;2.43;;;19.20;99.90;;;;;;5014465;28;20441;-69
2022/07/21 02:38:04;;;;;;;1.93;1.50;;;19.20;99.90;;;;;;5013942;28;20412;-69
2022/07/21 02:40:31;;;;;;;2.50;2.27;;;19.10;99.90;;;;;;5012524;28;20422;-69
2022/07/21 02:42:56;;;;;;;2.90;2.70;;;19.20;99.90;;;;;;5014559;28;20465;-70
2022/07/21 02:45:22;;;;;;;1.73;1.63;;;19.20;99.90;;;;;;5014081;28;20876;-71
2022/07/21 02:47:54;;;;;;;5.90;2.63;;;19.20;99.90;;;;;;5013732;28;20418;-70
2022/07/21 02:50:21;;;;;;;3.27;2.73;;;19.20;99.90;;;;;;5014146;28;20199;-70
2022/07/21 02:52:47;;;;;;;1.30;1.20;;;19.30;99.90;;;;;;5014269;28;20453;-70
2022/07/21 02:55:14;;;;;;;2.90;2.73;;;19.30;99.90;;;;;;5013151;28;20442;-69
2022/07/21 02:57:40;;;;;;;2.70;2.50;;;19.30;99.90;;;;;;5013915;28;20394;-69
2022/07/21 03:00:09;;;;;;;4.77;4.07;;;19.20;99.90;;;;;;5012182;28;20449;-70
2022/07/21 03:02:34;;;;;;;2.20;2.00;;;19.20;99.90;;;;;;5014063;28;20208;-69
2022/07/21 03:05:00;;;;;;;2.47;1.77;;;19.10;99.90;;;;;;5012844;28;20879;-70
2022/07/21 03:07:26;;;;;;;4.00;3.70;;;19.20;99.90;;;;;;5013962;28;20222;-70
2022/07/21 03:09:52;;;;;;;3.63;2.50;;;19.20;99.90;;;;;;5013913;28;20242;-70
2022/07/21 03:12:18;;;;;;;2.17;1.97;;;19.20;99.90;;;;;;5013708;28;20256;-70
2022/07/21 03:14:43;;;;;;;2.53;2.33;;;19.20;99.90;;;;;;5013862;28;20398;-69
2022/07/21 03:17:09;;;;;;;2.73;2.53;;;19.20;99.90;;;;;;5013657;28;20410;-69
2022/07/21 03:19:35;;;;;;;2.90;1.90;;;19.10;99.90;;;;;;5014010;28;20200;-69
2022/07/21 03:22:00;;;;;;;5.17;3.00;;;18.90;99.90;;;;;;5014106;28;20226;-69
2022/07/21 03:24:26;;;;;;;4.80;3.60;;;18.90;99.90;;;;;;5013791;28;20210;-69
2022/07/21 03:26:52;;;;;;;2.83;2.30;;;18.90;99.90;;;;;;5013525;28;20164;-70
2022/07/21 03:29:18;;;;;;;2.37;2.17;;;18.80;99.90;;;;;;5013342;28;20658;-70
2022/07/21 03:31:43;;;;;;;6.90;3.10;;;18.80;99.90;;;;;;5013838;28;20218;-70
2022/07/21 03:34:09;;;;;;;3.63;2.77;;;18.90;99.90;;;;;;5013884;28;20183;-70
2022/07/21 03:36:35;;;;;;;3.10;2.23;;;18.80;99.90;;;;;;5013045;28;20548;-70
2022/07/21 03:39:01;;;;;;;4.20;2.70;;;18.90;99.90;;;;;;5010790;28;20480;-70
2022/07/21 03:41:26;;;;;;;2.70;2.30;;;19.00;99.90;;;;;;5012243;28;20203;-70
2022/07/21 03:43:52;;;;;;;2.17;1.97;;;19.00;99.90;;;;;;5013360;28;20241;-70
2022/07/21 03:46:17;;;;;;;3.10;2.50;;;19.00;99.90;;;;;;5013396;28;20180;-70
2022/07/21 03:48:43;;;;;;;3.07;2.83;;;19.00;99.90;;;;;;5012042;28;20203;-70
2022/07/21 03:51:09;;;;;;;2.27;2.13;;;19.00;99.90;;;;;;5011072;28;20206;-70
2022/07/21 03:53:35;;;;;;;2.73;2.57;;;18.90;99.90;;;;;;5011420;28;20182;-70
2022/07/21 03:56:00;;;;;;;2.40;2.10;;;18.80;99.90;;;;;;5012288;28;20506;-70
2022/07/21 03:58:27;;;;;;;3.50;3.20;;;18.70;99.90;;;;;;5012259;28;20238;-70
2022/07/21 04:00:53;;;;;;;2.93;2.73;;;18.50;99.90;;;;;;5012427;28;20441;-70
2022/07/21 04:03:19;;;;;;;2.40;2.30;;;18.50;99.90;;;;;;5012768;28;20776;-70
2022/07/21 04:05:44;;;;;;;2.80;2.60;;;18.50;99.90;;;;;;5014152;28;20403;-70
2022/07/21 04:08:13;;;;;;;2.80;2.60;;;18.60;99.90;;;;;;5016589;28;20209;-70
2022/07/21 04:10:40;;;;;;;5.83;1.80;;;18.60;99.90;;;;;;5016576;28;20555;-70
2022/07/21 04:13:09;;;;;;;5.23;2.83;;;18.60;99.90;;;;;;5016850;28;20402;-70
2022/07/21 04:15:35;;;;;;;2.57;2.20;;;18.60;99.90;;;;;;5016710;28;20407;-70
2022/07/21 04:18:01;;;;;;;2.90;2.67;;;18.60;99.90;;;;;;5016411;28;20838;-70
2022/07/21 04:20:27;;;;;;;3.27;2.03;;;18.50;99.90;;;;;;5016672;28;20513;-70
2022/07/21 04:22:54;;;;;;;2.77;2.57;;;18.60;99.90;;;;;;5016378;28;20538;-70
2022/07/21 04:25:20;;;;;;;2.80;2.60;;;18.60;99.90;;;;;;5016338;28;20428;-70
2022/07/21 04:27:47;;;;;;;3.03;2.73;;;18.70;99.90;;;;;;5016549;28;20405;-71
2022/07/21 04:30:18;;;;;;;1.83;1.73;;;18.80;99.90;;;;;;5016269;28;20426;-70
2022/07/21 04:32:44;;;;;;;1.77;1.67;;;18.90;99.90;;;;;;5015031;28;20461;-71
2022/07/21 04:35:11;;;;;;;5.20;2.97;;;18.80;99.90;;;;;;5016514;28;20891;-70
2022/07/21 04:37:37;;;;;;;2.43;2.20;;;18.70;99.90;;;;;;5016010;28;20783;-70
2022/07/21 04:40:05;;;;;;;2.70;1.90;;;18.70;99.90;;;;;;5016303;28;20438;-71
2022/07/21 04:42:32;;;;;;;1.70;1.60;;;18.70;99.90;;;;;;5016126;28;20537;-70
2022/07/21 04:44:57;;;;;;;2.70;1.80;;;18.80;99.90;;;;;;5016176;28;20867;-70
2022/07/21 04:47:23;;;;;;;1.90;1.80;;;18.80;99.90;;;;;;5015794;28;20408;-70
2022/07/21 04:49:49;;;;;;;2.27;1.90;;;18.90;99.90;;;;;;5015994;28;20187;-70
2022/07/21 04:52:15;;;;;;;2.30;1.90;;;18.90;99.90;;;;;;5016162;28;20246;-70
2022/07/21 04:54:40;;;;;;;2.47;2.27;;;19.00;99.90;;;;;;5016087;28;20718;-70
2022/07/21 04:57:07;;;;;;;2.37;2.23;;;19.00;99.90;;;;;;5015728;28;20168;-70
2022/07/21 04:59:33;;;;;;;2.37;1.93;;;19.00;99.90;;;;;;5015796;28;20657;-70
2022/07/21 05:01:59;;;;;;;2.10;1.90;;;18.90;99.90;;;;;;5015710;28;20458;-70
2022/07/21 05:04:25;;;;;;;3.33;2.93;;;19.00;99.90;;;;;;5015825;28;20397;-70
2022/07/21 05:06:51;;;;;;;2.97;2.77;;;19.20;99.90;;;;;;5015862;28;20175;-70
2022/07/21 05:09:16;;;;;;;2.80;2.60;;;19.20;99.90;;;;;;5015413;28;20422;-70
2022/07/21 05:11:42;;;;;;;2.73;2.40;;;19.20;99.90;;;;;;5015573;28;20571;-71
2022/07/21 05:14:07;;;;;;;3.47;3.13;;;19.20;99.90;;;;;;5015578;28;20186;-70
2022/07/21 05:16:33;;;;;;;2.93;2.13;;;19.10;99.90;;;;;;5015706;28;20208;-70
2022/07/21 05:18:59;;;;;;;2.60;2.40;;;19.20;99.90;;;;;;5014523;28;20172;-70
2022/07/21 05:21:24;;;;;;;1.83;1.73;;;19.20;99.90;;;;;;5015297;28;20214;-70
2022/07/21 05:23:50;;;;;;;4.40;2.73;;;19.30;99.90;;;;;;5015349;28;20176;-70
2022/07/21 05:26:16;;;;;;;2.13;1.90;;;19.30;99.90;;;;;;5015369;28;20177;-70
2022/07/21 05:28:41;;;;;;;2.30;2.13;;;19.40;99.90;;;;;;5015045;28;20224;-70
2022/07/21 05:31:08;;;;;;;1.73;1.67;;;19.40;99.90;;;;;;5015159;28;20553;-70
2022/07/21 05:33:34;;;;;;;2.83;2.63;;;19.40;99.90;;;;;;5015828;28;20183;-70
2022/07/21 05:36:00;;;;;;;5.13;2.47;;;19.40;99.90;;;;;;5015253;28;20439;-70
2022/07/21 05:38:26;;;;;;;2.20;1.90;;;19.50;99.90;;;;;;5014845;28;20453;-70
2022/07/21 05:40:51;;;;;;;1.93;1.83;;;19.50;99.90;;;;;;5014873;28;20281;-71
2022/07/21 05:43:17;;;;;;;2.60;2.47;;;19.60;99.90;;;;;;5014902;28;20192;-71
2022/07/21 05:45:43;;;;;;;2.13;2.03;;;19.50;99.90;;;;;;5015061;28;20171;-71
2022/07/21 05:48:08;;;;;;;2.23;2.13;;;19.50;99.90;;;;;;5014740;28;20168;-70
2022/07/21 05:50:34;;;;;;;1.90;1.80;;;19.50;99.90;;;;;;5014709;28;20209;-70
2022/07/21 05:52:59;;;;;;;2.67;2.50;;;19.70;99.90;;;;;;5014958;28;20176;-71
2022/07/21 05:55:25;;;;;;;2.00;1.83;;;19.80;99.90;;;;;;5014792;28;20634;-70
2022/07/21 05:57:51;;;;;;;2.80;2.63;;;19.90;99.90;;;;;;5014475;28;20173;-71
2022/07/21 06:00:17;;;;;;;2.77;2.53;;;20.20;99.90;;;;;;5014691;28;20198;-70
2022/07/21 06:02:47;;;;;;;2.40;1.67;;;20.40;99.90;;;;;;5014524;28;20213;-70
2022/07/21 06:05:14;;;;;;;2.60;2.40;;;20.50;99.90;;;;;;5015047;28;20179;-70
2022/07/21 06:07:40;;;;;;;2.10;1.90;;;20.60;99.90;;;;;;5014485;28;20414;-70
2022/07/21 06:10:06;;;;;;;2.93;2.17;;;20.50;99.90;;;;;;5014458;28;20519;-71
2022/07/21 06:12:32;;;;;;;1.67;1.07;;;20.40;99.90;;;;;;5014584;28;20418;-70
2022/07/21 06:14:58;;;;;;;1.70;1.60;;;20.60;99.90;;;;;;5014498;28;20468;-70
2022/07/21 06:17:24;;;;;;;2.40;1.80;;;20.70;99.90;;;;;;5014293;28;20519;-70
2022/07/21 06:19:49;;;;;;;2.07;1.73;;;20.70;99.90;;;;;;5014359;28;20197;-70
2022/07/21 06:22:15;;;;;;;1.70;1.60;;;20.90;99.90;;;;;;5014226;28;20209;-70
2022/07/21 06:24:41;;;;;;;2.70;2.50;;;20.90;99.90;;;;;;5014278;28;20632;-70
2022/07/21 06:27:06;;;;;;;1.23;1.13;;;20.90;99.90;;;;;;5014367;28;20643;-71
2022/07/21 06:29:32;;;;;;;1.40;1.30;;;21.10;99.90;;;;;;5014086;28;20192;-71
2022/07/21 06:31:58;;;;;;;2.30;1.60;;;21.40;99.90;;;;;;5014136;28;20246;-71
2022/07/21 06:34:23;;;;;;;2.80;1.60;;;21.40;99.90;;;;;;5013674;28;20598;-70
2022/07/21 06:36:49;;;;;;;2.87;2.07;;;21.40;99.90;;;;;;5013355;28;20182;-71
2022/07/21 06:39:15;;;;;;;0.73;0.73;;;21.70;99.90;;;;;;5013989;28;20201;-70
2022/07/21 06:41:40;;;;;;;2.37;2.27;;;22.00;99.90;;;;;;5014147;28;20204;-71
2022/07/21 06:44:06;;;;;;;1.27;1.17;;;22.30;98.90;;;;;;5014110;28;20182;-70
2022/07/21 06:46:34;;;;;;;4.43;1.70;;;22.50;98.80;;;;;;5014133;28;20181;-70
2022/07/21 06:49:00;;;;;;;1.73;1.60;;;22.50;97.70;;;;;;5013521;28;20404;-71
2022/07/21 06:51:25;;;;;;;1.50;1.40;;;22.20;99.10;;;;;;5012697;28;20813;-71
2022/07/21 06:53:51;;;;;;;2.67;2.47;;;22.50;98.00;;;;;;5013820;28;20190;-71
2022/07/21 06:56:17;;;;;;;1.80;1.70;;;22.40;97.50;;;;;;5013861;28;20188;-70
2022/07/21 06:58:43;;;;;;;1.60;1.50;;;22.70;96.90;;;;;;5013697;28;20228;-71
2022/07/21 07:01:08;;;;;;;1.60;1.50;;;23.00;97.70;;;;;;5013638;28;20819;-71
2022/07/21 07:03:34;;;;;;;2.67;1.60;;;23.10;98.40;;;;;;5012004;28;20178;-70
2022/07/21 07:06:00;;;;;;;1.10;1.00;;;22.70;96.20;;;;;;5012248;28;20674;-71
2022/07/21 07:08:26;;;;;;;1.70;1.57;;;23.00;96.10;;;;;;5011359;28;20415;-71
2022/07/21 07:10:51;;;;;;;1.93;1.80;;;22.90;95.40;;;;;;5011170;28;20191;-71
2022/07/21 07:13:17;;;;;;;1.30;1.30;;;22.90;96.40;;;;;;5012491;28;20533;-73
2022/07/21 07:15:43;;;;;;;1.20;1.00;;;23.60;96.30;;;;;;5010873;28;20160;-74
2022/07/21 07:18:09;;;;;;;1.63;1.53;;;24.00;94.80;;;;;;5011017;28;20445;-74
2022/07/21 07:20:35;;;;;;;1.20;1.10;;;24.10;93.90;;;;;;5011767;28;20883;-74
2022/07/21 07:23:01;;;;;;;1.00;1.00;;;24.10;93.60;;;;;;5011536;28;20955;-74
2022/07/21 07:25:27;;;;;;;1.17;1.17;;;24.00;93.60;;;;;;5013526;28;20492;-72
2022/07/21 07:27:54;;;;;;;2.60;1.53;;;23.70;94.40;;;;;;5012572;28;20172;-71
2022/07/21 07:30:19;;;;;;;1.03;1.00;;;23.50;95.00;;;;;;5011918;28;20691;-71
2022/07/21 07:32:47;;;;;;;2.63;1.50;;;23.20;94.20;;;;;;5013002;28;20402;-70
2022/07/21 07:35:15;;;;;;;1.73;1.63;;;22.90;95.60;;;;;;5012086;28;20211;-71
2022/07/21 07:37:42;;;;;;;1.03;0.97;;;22.90;95.20;;;;;;5012357;28;20448;-70
2022/07/21 07:40:11;;;;;;;1.40;1.30;;;22.90;95.50;;;;;;5011388;28;20431;-71
2022/07/21 07:42:38;;;;;;;1.17;1.00;;;22.50;96.30;;;;;;5013865;28;21027;-70
2022/07/21 07:45:06;;;;;;;0.97;0.97;;;22.60;96.00;;;;;;5015141;28;20914;-71
2022/07/21 07:47:32;;;;;;;1.53;1.43;;;24.00;94.80;;;;;;5017174;28;20377;-71
2022/07/21 07:49:58;;;;;;;1.77;1.67;;;24.70;93.80;;;;;;5015372;28;20430;-71
2022/07/21 07:52:24;;;;;;;0.90;0.90;;;25.00;92.60;;;;;;5016243;28;20189;-70
2022/07/21 07:54:50;;;;;;;1.50;1.40;;;25.30;91.50;;;;;;5016318;28;20737;-71
2022/07/21 07:57:16;;;;;;;1.30;1.20;;;25.30;91.40;;;;;;5015351;28;20467;-71
2022/07/21 07:59:42;;;;;;;1.37;1.27;;;24.90;91.80;;;;;;5017082;28;20206;-70
2022/07/21 08:02:08;;;;;;;0.83;0.80;;;24.50;91.80;;;;;;5016108;28;20588;-73
2022/07/21 08:04:37;;;;;;;2.23;1.23;;;24.60;92.80;;;;;;5015511;28;20183;-71
2022/07/21 08:07:03;;;;;;;1.23;1.13;;;25.20;93.10;;;;;;5016023;28;20255;-70
2022/07/21 08:09:29;;;;;;;1.17;1.07;;;25.30;90.70;;;;;;5013955;28;20453;-71
2022/07/21 08:11:55;;;;;;;1.00;1.00;;;26.60;90.00;;;;;;5013960;28;20888;-71
2022/07/21 08:14:21;;;;;;;0.93;0.93;;;28.30;81.40;;;;;;5012450;28;20907;-71
2022/07/21 08:16:47;;;;;;;1.67;0.77;;;30.20;74.60;;;;;;5016038;28;20545;-72
2022/07/21 08:19:13;;;;;;;1.60;1.50;;;31.30;68.40;;;;;;5016023;28;20438;-72
2022/07/21 08:21:39;;;;;;;0.70;0.70;;;31.10;64.20;;;;;;5016520;28;20559;-72
2022/07/21 08:24:05;;;;;;;1.50;1.33;;;30.90;67.80;;;;;;5015776;28;20198;-72
2022/07/21 08:26:30;;;;;;;1.10;1.00;;;31.10;69.20;;;;;;5016638;28;20196;-72
2022/07/21 08:28:57;;;;;;;1.33;1.10;;;31.20;62.60;;;;;;5016083;28;20247;-72
2022/07/21 08:31:24;;;;;;;2.17;1.90;;;31.80;65.50;;;;;;5016340;28;20176;-72
2022/07/21 08:33:51;;;;;;;1.10;1.10;;;31.30;62.20;;;;;;5016364;28;20468;-72
2022/07/21 08:36:17;;;;;;;1.20;1.10;;;30.60;66.20;;;;;;5016490;28;20410;-71
2022/07/21 08:38:42;;;;;;;0.93;0.70;;;28.90;70.20;;;;;;5015942;28;20425;-71
2022/07/21 08:41:08;;;;;;;1.00;1.00;;;28.20;70.20;;;;;;5016009;28;20907;-71
2022/07/21 08:43:35;;;;;;;1.40;1.30;;;29.00;71.20;;;;;;5016632;28;20171;-71
2022/07/21 08:46:01;;;;;;;0.57;0.50;;;29.70;68.70;;;;;;5016335;28;20247;-72
2022/07/21 08:48:29;;;;;;;1.40;1.30;;;30.00;68.70;;;;;;5015904;28;20445;-72
2022/07/21 08:50:55;;;;;;;0.83;0.83;;;31.50;62.40;;;;;;5015835;28;20191;-72
2022/07/21 08:53:22;;;;;;;1.27;1.07;;;32.80;58.40;;;;;;5014812;28;20982;-72
2022/07/21 08:55:48;;;;;;;1.30;1.20;;;33.50;60.10;;;;;;5016032;28;20398;-72
2022/07/21 08:58:14;;;;;;;1.50;1.40;;;32.50;58.00;;;;;;5015704;28;20611;-71
2022/07/21 09:00:43;;;;;;;0.90;0.90;;;31.70;59.60;;;;;;5015732;28;20245;-72
2022/07/21 09:03:14;;;;;;;1.00;1.00;;;31.70;58.50;;;;;;5015848;28;20462;-72
2022/07/21 09:05:42;;;;;;;1.30;1.20;;;32.30;57.30;;;;;;5014570;28;20455;-71
2022/07/21 09:08:07;;;;;;;1.20;1.10;;;32.50;54.40;;;;;;5015607;28;20548;-72
2022/07/21 09:10:34;;;;;;;1.13;1.00;;;31.50;57.60;;;;;;5015604;28;20513;-72
2022/07/21 09:13:03;;;;;;;0.80;0.80;;;30.20;57.20;;;;;;5015562;28;20182;-72
2022/07/21 09:15:31;;;;;;;1.03;1.03;;;30.30;60.70;;;;;;5015457;28;20407;-72
2022/07/21 09:18:13;;;;;;;0.80;0.77;;;31.00;58.40;;;;;;5015288;28;20477;-72
2022/07/21 09:20:47;;;;;;;0.80;0.80;;;31.40;55.60;;;;;;5015289;28;20434;-72
2022/07/21 09:23:16;;;;;;;0.97;0.97;;;31.30;57.00;;;;;;5015502;28;20454;-72
2022/07/21 09:25:47;;;;;;;0.70;0.70;;;31.00;57.40;;;;;;5015203;28;20426;-72
2022/07/21 09:28:28;;;;;;;2.33;2.20;;;30.50;61.10;;;;;;5015239;28;20402;-72
2022/07/21 09:31:07;;;;;;;0.93;0.93;;;31.00;59.20;;;;;;5015406;28;20433;-72
2022/07/21 09:33:34;;;;;;;0.90;0.80;;;32.20;54.40;;;;;;5015418;28;20413;-69
2022/07/21 09:36:11;;;;;;;0.90;0.90;;;33.10;52.10;;;;;;5015422;28;20823;-69
2022/07/21 09:38:43;;;;;;;1.20;1.10;;;33.20;52.20;;;;;;5015077;28;20405;-69
2022/07/21 09:41:15;;;;;;;1.10;0.77;;;33.00;53.30;;;;;;5015092;28;20746;-69
2022/07/21 09:43:47;;;;;;;2.57;1.30;;;32.70;52.60;;;;;;5015146;28;20395;-71
2022/07/21 09:46:30;;;;;;;0.70;0.70;;;31.40;54.50;;;;;;5014955;28;20402;-72
2022/07/21 09:49:00;;;;;;;1.13;1.03;;;30.60;60.60;;;;;;5014742;28;20402;-72
2022/07/21 09:51:31;;;;;;;1.13;1.03;;;30.30;61.40;;;;;;5014867;28;20926;-72
2022/07/21 09:54:00;;;;;;;1.20;1.10;;;30.30;57.10;;;;;;5015061;28;20430;-72
2022/07/21 09:56:31;;;;;;;0.83;0.83;;;31.20;58.10;;;;;;5014951;28;20414;-72
2022/07/21 09:58:58;;;;;;;0.70;0.60;;;32.00;54.50;;;;;;5014497;28;20413;-72
2022/07/21 10:01:25;;;;;;;1.53;1.20;;;32.20;53.30;;;;;;5014629;28;20468;-71
2022/07/21 10:03:53;;;;;;;1.03;0.90;;;31.10;57.60;;;;;;5014400;28;20403;-71
2022/07/21 10:06:22;;;;;;;2.70;1.33;;;29.90;59.10;;;;;;5014879;28;20414;-71
2022/07/21 10:08:49;;;;;;;1.23;1.23;;;29.40;57.50;;;;;;5014260;28;20411;-71
2022/07/21 10:11:15;;;;;;;0.70;0.70;;;29.90;57.10;;;;;;5014499;28;20449;-72
2022/07/21 10:13:40;;;;;;;1.00;1.00;;;29.90;59.10;;;;;;5014569;28;20820;-71
2022/07/21 10:16:09;;;;;;;0.77;0.77;;;30.30;56.80;;;;;;5014658;28;20175;-71
2022/07/21 10:18:42;;;;;;;1.07;0.60;;;30.60;54.30;;;;;;5014384;28;20250;-71
2022/07/21 10:21:30;;;;;;;1.17;1.17;;;30.30;57.30;;;;;;5014206;28;20434;-72
2022/07/21 10:23:55;;;;;;;0.70;0.70;;;29.70;60.10;;;;;;5014604;28;20842;-72
2022/07/21 10:26:21;;;;;;;0.87;0.80;;;30.20;59.00;;;;;;5014536;28;20403;-71
2022/07/21 10:28:47;;;;;;;0.87;0.87;;;31.20;56.30;;;;;;5013985;28;20200;-72
2022/07/21 10:31:24;;;;;;;0.70;0.70;;;32.10;55.20;;;;;;5014260;28;20619;-72
2022/07/21 10:33:49;;;;;;;1.00;0.70;;;32.00;53.90;;;;;;5014327;28;20241;-72
2022/07/21 10:36:27;;;;;;;0.70;0.70;;;32.20;54.60;;;;;;5014273;28;20411;-72
2022/07/21 10:39:17;;;;;;;1.23;1.13;;;32.60;55.40;;;;;;5013910;28;20262;-71
2022/07/21 10:41:46;;;;;;;0.93;0.80;;;31.90;54.40;;;;;;5014016;28;20478;-72
2022/07/21 10:44:30;;;;;;;0.70;0.70;;;31.60;55.00;;;;;;5014169;28;20410;-71
2022/07/21 10:47:19;;;;;;;0.77;0.77;;;30.80;56.40;;;;;;5013808;28;20410;-72
2022/07/21 10:49:45;;;;;;;0.93;0.90;;;30.70;55.60;;;;;;5013940;28;20829;-72
2022/07/21 10:52:38;;;;;;;1.00;0.70;;;31.30;55.30;;;;;;5013922;28;20441;-71
2022/07/21 10:55:26;;;;;;;2.10;1.17;;;31.40;55.10;;;;;;5013899;28;20203;-72
2022/07/21 10:58:15;;;;;;;1.37;1.07;;;30.80;54.60;;;;;;5013805;28;20410;-71
2022/07/21 11:00:50;;;;;;;0.80;0.80;;;30.50;54.60;;;;;;5013680;28;20435;-72
2022/07/21 11:03:29;;;;;;;1.03;1.00;;;30.50;56.40;;;;;;5014043;28;20473;-71
2022/07/21 11:06:27;;;;;;;0.70;0.70;;;30.10;55.40;;;;;;5013990;28;20876;-72
2022/07/21 11:09:04;;;;;;;0.80;0.80;;;29.50;55.30;;;;;;5013660;28;20884;-71
2022/07/21 11:12:00;;;;;;;0.80;0.80;;;29.30;58.90;;;;;;5013748;28;20405;-71
2022/07/21 11:14:36;;;;;;;1.20;1.00;;;29.30;59.60;;;;;;5013797;28;20398;-71
2022/07/21 11:17:03;;;;;;;0.70;0.70;;;29.30;58.40;;;;;;5016392;28;20410;-71
2022/07/21 11:19:40;;;;;;;0.97;0.93;;;29.00;59.70;;;;;;5017734;28;20445;-71
2022/07/21 11:22:25;;;;;;;3.23;1.00;;;28.90;63.50;;;;;;5013255;28;20461;-71
2022/07/21 11:25:06;;;;;;;0.60;0.60;;;28.80;59.10;;;;;;5017313;28;20426;-72
2022/07/21 11:27:34;;;;;;;0.80;0.80;;;28.80;60.20;;;;;;5017496;28;20449;-72
2022/07/21 11:30:02;;;;;;;2.10;2.00;;;28.70;58.40;;;;;;5017489;28;20453;-72
2022/07/21 11:32:28;;;;;;;0.83;0.83;;;28.60;58.20;;;;;;5017663;28;20409;-71
2022/07/21 11:34:58;;;;;;;0.60;0.60;;;28.40;54.80;;;;;;5017758;28;20418;-71
2022/07/21 11:37:36;;;;;;;0.70;0.70;;;27.90;55.80;;;;;;5017202;28;20793;-72
2022/07/21 11:40:16;;;;;;;0.77;0.77;;;27.70;56.30;;;;;;5017575;28;20468;-71
2022/07/21 11:42:43;;;;;;;0.80;0.80;;;27.70;57.70;;;;;;5016021;28;20811;-71
2022/07/21 11:45:10;;;;;;;0.60;0.60;;;27.70;57.40;;;;;;5017313;28;20402;-71
2022/07/21 11:47:36;;;;;;;0.83;0.83;;;27.20;57.10;;;;;;5016938;28;20468;-71
2022/07/21 11:50:06;;;;;;;1.07;1.00;;;27.10;56.40;;;;;;5017281;28;20521;-71
2022/07/21 11:52:34;;;;;;;0.60;0.60;;;27.00;59.90;;;;;;5017495;28;20170;-72
2022/07/21 11:55:03;;;;;;;0.50;0.50;;;26.80;59.90;;;;;;5017266;28;20377;-71
2022/07/21 11:57:29;;;;;;;0.60;0.60;;;26.80;61.90;;;;;;5016879;28;20744;-72
2022/07/21 11:59:56;;;;;;;0.80;0.70;;;27.10;61.10;;;;;;5016887;28;20921;-71
2022/07/21 12:02:27;;;;;;;1.37;1.20;;;27.00;56.40;;;;;;5016857;28;20439;-71
2022/07/21 12:05:01;;;;;;;0.57;0.57;;;27.00;56.30;;;;;;5017040;28;20413;-71
2022/07/21 12:07:31;;;;;;;1.47;1.37;;;27.10;59.40;;;;;;5016830;28;20440;-71
2022/07/21 12:09:59;;;;;;;0.93;0.80;;;27.30;57.10;;;;;;5016952;28;20520;-71
2022/07/21 12:12:35;;;;;;;1.00;1.00;;;27.40;58.50;;;;;;5016776;28;20928;-71
2022/07/21 12:15:16;;;;;;;0.70;0.70;;;27.60;57.90;;;;;;5017020;28;20406;-72
2022/07/21 12:17:53;;;;;;;2.40;1.13;;;27.50;57.80;;;;;;5015334;28;20949;-71
2022/07/21 12:20:32;;;;;;;1.37;1.27;;;27.30;61.10;;;;;;5015645;28;20437;-71
2022/07/21 12:23:00;;;;;;;0.87;0.87;;;27.00;61.30;;;;;;5016504;28;20446;-71
2022/07/21 12:25:37;;;;;;;0.80;0.80;;;26.80;58.10;;;;;;5015093;28;20469;-72
2022/07/21 12:28:07;;;;;;;0.50;0.50;;;26.90;58.70;;;;;;5016077;28;20736;-71
2022/07/21 12:30:44;;;;;;;0.80;0.80;;;27.10;63.90;;;;;;5015150;28;20393;-72
2022/07/21 12:33:15;;;;;;;2.30;1.10;;;27.20;61.50;;;;;;5016429;28;20410;-72
2022/07/21 12:35:48;;;;;;;0.50;0.50;;;27.40;57.90;;;;;;5014841;28;20388;-72
2022/07/21 12:38:15;;;;;;;1.23;1.13;;;27.50;59.10;;;;;;5014366;28;20426;-71
2022/07/21 12:40:44;;;;;;;1.23;1.13;;;27.50;59.30;;;;;;5014566;28;20415;-71
2022/07/21 12:43:13;;;;;;;1.03;0.93;;;27.10;57.90;;;;;;5015229;28;20428;-72
2022/07/21 12:45:59;;;;;;;0.90;0.90;;;26.70;59.30;;;;;;5015342;28;20494;-72
2022/07/21 12:48:31;;;;;;;0.80;0.80;;;26.70;57.60;;;;;;5014989;28;20493;-71
2022/07/21 12:51:13;;;;;;;1.07;0.97;;;26.80;59.40;;;;;;5015685;28;20401;-71
2022/07/21 12:53:51;;;;;;;1.27;0.80;;;27.00;60.90;;;;;;5015965;28;20406;-71
2022/07/21 12:56:25;;;;;;;0.70;0.60;;;27.10;56.60;;;;;;5016168;28;20387;-72